Time;durP1;ratioP1;P1;durP2;ratioP2;P2;SDS_P1;SDS_P2;PMS_P1;PMS_P2;Temp;Humidity;BMP_temperature;BMP_pressure;BME280_temperature;BME280_humidity;BME280_pressure;Samples;Min_cycle;Max_cycle;Signal;HPM_P1;HPM_P2
2023/12/17 00:01:16;;;;;;;10.10;4.65;;;18.30;44.30;;;;;;5092296;28;20304;-60
2023/12/17 00:03:43;;;;;;;9.10;4.13;;;18.30;44.30;;;;;;5091993;28;20269;-59
2023/12/17 00:06:10;;;;;;;7.47;4.15;;;18.30;44.20;;;;;;5092496;28;20222;-60
2023/12/17 00:08:37;;;;;;;7.68;4.60;;;18.30;44.30;;;;;;5093366;28;20182;-59
2023/12/17 00:11:04;;;;;;;10.32;4.35;;;18.30;44.20;;;;;;5095798;28;20728;-60
2023/12/17 00:13:34;;;;;;;9.43;4.32;;;18.30;44.20;;;;;;5096077;28;20190;-59
2023/12/17 00:16:01;;;;;;;7.15;3.85;;;18.30;44.80;;;;;;5096976;28;20300;-60
2023/12/17 00:18:28;;;;;;;9.95;4.45;;;18.30;44.10;;;;;;5095939;28;20186;-59
2023/12/17 00:20:55;;;;;;;7.30;3.97;;;18.30;44.80;;;;;;5096217;28;20220;-60
2023/12/17 00:23:21;;;;;;;9.57;4.20;;;18.30;44.10;;;;;;5095873;28;20561;-60
2023/12/17 00:25:48;;;;;;;10.15;4.45;;;18.30;44.10;;;;;;5095548;28;20218;-60
2023/12/17 00:28:15;;;;;;;11.00;4.30;;;18.30;44.10;;;;;;5096148;28;20327;-59
2023/12/17 00:30:44;;;;;;;8.20;4.28;;;18.20;44.70;;;;;;5096124;28;20210;-60
2023/12/17 00:33:11;;;;;;;9.13;4.35;;;18.20;44.00;;;;;;5095718;28;20192;-60
2023/12/17 00:35:39;;;;;;;7.75;4.10;;;18.20;44.00;;;;;;5096123;28;20216;-60
2023/12/17 00:38:06;;;;;;;7.03;3.88;;;18.20;44.00;;;;;;5095547;28;20186;-60
2023/12/17 00:40:33;;;;;;;7.75;3.97;;;18.20;44.70;;;;;;5095555;28;20233;-59
2023/12/17 00:43:00;;;;;;;11.38;4.05;;;18.20;44.00;;;;;;5095751;28;20305;-59
2023/12/17 00:45:27;;;;;;;7.78;3.55;;;18.20;44.70;;;;;;5095895;28;20225;-60
2023/12/17 00:47:55;;;;;;;8.85;4.28;;;18.20;44.10;;;;;;5095229;28;20193;-60
2023/12/17 00:50:22;;;;;;;6.32;3.63;;;18.20;44.10;;;;;;5095792;28;20288;-60
2023/12/17 00:52:49;;;;;;;7.63;3.78;;;18.20;44.70;;;;;;5095757;28;20251;-60
2023/12/17 00:55:15;;;;;;;7.63;3.67;;;18.20;44.00;;;;;;5094907;28;20590;-59
2023/12/17 00:57:42;;;;;;;8.18;3.78;;;18.20;44.00;;;;;;5095535;28;20186;-59
2023/12/17 01:00:10;;;;;;;10.73;4.25;;;18.20;44.00;;;;;;5095590;28;20210;-59
2023/12/17 01:02:37;;;;;;;6.68;3.22;;;18.10;43.90;;;;;;5095222;28;20416;-60
2023/12/17 01:05:06;;;;;;;6.22;3.42;;;18.20;43.90;;;;;;5095409;28;20646;-60
2023/12/17 01:07:33;;;;;;;8.30;3.83;;;18.20;43.90;;;;;;5095311;28;20190;-59
2023/12/17 01:10:00;;;;;;;7.97;3.42;;;18.20;43.90;;;;;;5095055;28;20417;-60
2023/12/17 01:12:27;;;;;;;7.30;3.50;;;18.10;43.80;;;;;;5095189;28;20226;-60
2023/12/17 01:14:54;;;;;;;6.28;3.42;;;18.10;43.80;;;;;;5095310;28;20719;-60
2023/12/17 01:17:20;;;;;;;6.10;3.25;;;18.10;44.50;;;;;;5093530;28;20194;-59
2023/12/17 01:19:47;;;;;;;10.48;3.80;;;18.10;43.80;;;;;;5085822;28;20214;-59
2023/12/17 01:22:16;;;;;;;7.75;3.50;;;18.10;43.80;;;;;;5074402;28;20598;-60
2023/12/17 01:24:42;;;;;;;7.95;3.45;;;18.10;43.90;;;;;;5074504;28;20265;-59
2023/12/17 01:27:09;;;;;;;7.10;3.47;;;18.10;43.80;;;;;;5074416;28;20219;-57
2023/12/17 01:29:36;;;;;;;5.50;3.00;;;18.10;43.80;;;;;;5074705;28;20191;-59
2023/12/17 01:32:03;;;;;;;8.27;3.60;;;18.10;43.80;;;;;;5074026;28;20191;-60
2023/12/17 01:34:30;;;;;;;8.25;3.65;;;18.10;43.80;;;;;;5074413;28;20640;-60
2023/12/17 01:36:57;;;;;;;10.55;3.22;;;18.10;43.80;;;;;;5074430;28;20191;-58
2023/12/17 01:39:25;;;;;;;7.97;3.40;;;18.00;43.70;;;;;;5074113;28;20273;-60
2023/12/17 01:41:52;;;;;;;8.35;3.28;;;18.00;44.40;;;;;;5074442;28;20588;-60
2023/12/17 01:44:19;;;;;;;7.03;3.53;;;18.00;43.70;;;;;;5074091;28;20187;-59
2023/12/17 01:46:46;;;;;;;6.63;3.35;;;18.10;43.70;;;;;;5074121;28;20187;-59
2023/12/17 01:49:13;;;;;;;6.47;3.20;;;18.00;43.70;;;;;;5074319;28;20197;-58
2023/12/17 01:51:41;;;;;;;5.88;3.25;;;18.00;43.70;;;;;;5074434;28;20242;-60
2023/12/17 01:54:08;;;;;;;6.28;3.47;;;18.00;43.70;;;;;;5073700;28;20194;-60
2023/12/17 01:56:37;;;;;;;6.55;3.28;;;18.00;43.70;;;;;;5074188;28;20272;-59
2023/12/17 01:59:04;;;;;;;8.60;3.78;;;18.00;44.30;;;;;;5074220;28;20191;-60
2023/12/17 02:01:32;;;;;;;6.13;3.30;;;18.00;43.70;;;;;;5073779;28;20272;-60
2023/12/17 02:03:59;;;;;;;7.45;3.53;;;18.00;44.30;;;;;;5073920;28;20223;-60
2023/12/17 02:06:26;;;;;;;8.20;3.38;;;18.00;43.60;;;;;;5074260;28;20215;-60
2023/12/17 02:08:52;;;;;;;7.20;3.70;;;18.00;43.60;;;;;;5073598;28;20188;-60
2023/12/17 02:11:19;;;;;;;4.97;3.03;;;18.00;43.60;;;;;;5073856;28;20326;-59
2023/12/17 02:13:47;;;;;;;7.72;3.65;;;18.00;43.60;;;;;;5073593;28;20202;-60
2023/12/17 02:16:14;;;;;;;5.63;3.15;;;18.00;43.60;;;;;;5073460;28;20301;-60
2023/12/17 02:18:41;;;;;;;6.90;3.40;;;18.00;44.30;;;;;;5073723;28;20240;-60
2023/12/17 02:21:08;;;;;;;7.07;3.47;;;18.00;43.60;;;;;;5073868;28;20219;-60
2023/12/17 02:23:36;;;;;;;7.82;3.30;;;18.00;43.60;;;;;;5073341;28;20214;-60
2023/12/17 02:26:04;;;;;;;5.88;3.30;;;18.00;43.60;;;;;;5073686;28;20221;-60
2023/12/17 02:28:31;;;;;;;10.45;3.20;;;18.00;43.60;;;;;;5073595;28;20282;-60
2023/12/17 02:30:58;;;;;;;6.50;3.70;;;17.90;43.50;;;;;;5073059;28;20221;-60
2023/12/17 02:33:24;;;;;;;9.07;3.65;;;17.90;44.10;;;;;;5073539;28;20195;-60
2023/12/17 02:35:51;;;;;;;12.80;3.63;;;18.00;43.60;;;;;;5073460;28;20214;-60
2023/12/17 02:38:18;;;;;;;7.30;3.40;;;17.90;43.50;;;;;;5072641;28;20748;-60
2023/12/17 02:40:46;;;;;;;7.75;3.60;;;17.90;43.50;;;;;;5073387;28;20219;-59
2023/12/17 02:43:13;;;;;;;6.43;3.08;;;17.90;43.50;;;;;;5073182;28;20226;-59
2023/12/17 02:45:40;;;;;;;6.10;3.65;;;17.90;43.50;;;;;;5073040;28;20214;-60
2023/12/17 02:48:07;;;;;;;9.95;3.70;;;17.90;44.10;;;;;;5073163;28;20270;-60
2023/12/17 02:50:34;;;;;;;7.82;3.65;;;17.90;43.50;;;;;;5073276;28;20214;-60
2023/12/17 02:53:00;;;;;;;6.40;3.25;;;17.90;43.50;;;;;;5072523;28;20189;-60
2023/12/17 02:55:27;;;;;;;7.72;3.50;;;17.90;43.50;;;;;;5072648;28;20246;-59
2023/12/17 02:57:55;;;;;;;6.57;3.35;;;17.90;43.50;;;;;;5072936;28;20235;-60
2023/12/17 03:00:22;;;;;;;6.20;3.08;;;17.90;43.50;;;;;;5072341;28;20218;-59
2023/12/17 03:02:50;;;;;;;6.57;3.22;;;17.90;43.50;;;;;;5073061;28;20226;-60
2023/12/17 03:05:17;;;;;;;7.72;4.00;;;17.90;43.50;;;;;;5072563;28;20221;-58
2023/12/17 03:07:44;;;;;;;5.68;3.35;;;17.90;44.10;;;;;;5072385;28;20186;-60
2023/12/17 03:10:11;;;;;;;6.00;3.55;;;17.90;43.50;;;;;;5072775;28;20301;-59
2023/12/17 03:12:38;;;;;;;9.48;3.55;;;17.80;43.40;;;;;;5072749;28;20234;-60
2023/12/17 03:15:08;;;;;;;7.13;3.45;;;17.80;43.40;;;;;;5072446;28;20703;-59
2023/12/17 03:17:35;;;;;;;8.70;3.72;;;17.80;43.40;;;;;;5072604;28;20191;-59
2023/12/17 03:20:04;;;;;;;10.05;3.67;;;17.80;43.40;;;;;;5072592;28;20218;-60
2023/12/17 03:22:31;;;;;;;7.93;3.35;;;17.80;43.30;;;;;;5071985;28;20656;-59
2023/12/17 03:24:58;;;;;;;8.02;3.50;;;17.80;44.00;;;;;;5072550;28;20218;-60
2023/12/17 03:27:25;;;;;;;7.22;3.58;;;17.80;43.40;;;;;;5072535;28;20274;-60
2023/12/17 03:29:52;;;;;;;8.05;3.47;;;17.80;43.40;;;;;;5072574;28;20301;-60
2023/12/17 03:32:21;;;;;;;5.90;3.50;;;17.80;43.40;;;;;;5072497;28;20195;-60
2023/12/17 03:34:48;;;;;;;5.80;3.25;;;17.80;43.40;;;;;;5072248;28;20552;-59
2023/12/17 03:37:15;;;;;;;8.27;4.22;;;17.80;43.40;;;;;;5071968;28;20286;-60
2023/12/17 03:39:42;;;;;;;7.20;3.70;;;17.80;43.30;;;;;;5072568;28;20274;-60
2023/12/17 03:42:08;;;;;;;7.45;3.70;;;17.80;44.00;;;;;;5071862;28;20649;-60
2023/12/17 03:44:35;;;;;;;7.03;3.67;;;17.80;43.30;;;;;;5071132;28;20221;-59
2023/12/17 03:47:02;;;;;;;10.23;3.65;;;17.80;43.40;;;;;;5072395;28;20282;-59
2023/12/17 03:49:30;;;;;;;6.25;3.53;;;17.80;44.00;;;;;;5072269;28;20286;-59
2023/12/17 03:51:57;;;;;;;7.90;3.70;;;17.80;43.30;;;;;;5072158;28;20614;-60
2023/12/17 03:54:24;;;;;;;5.38;3.10;;;17.70;43.20;;;;;;5072299;28;20197;-59
2023/12/17 03:56:51;;;;;;;8.65;3.45;;;17.80;43.30;;;;;;5072224;28;20309;-60
2023/12/17 03:59:17;;;;;;;7.50;3.45;;;17.70;43.90;;;;;;5071588;28;20682;-59
2023/12/17 04:01:45;;;;;;;6.78;3.83;;;17.70;43.20;;;;;;5072401;28;20225;-60
2023/12/17 04:04:12;;;;;;;9.38;3.70;;;17.70;43.30;;;;;;5072051;28;20237;-59
2023/12/17 04:06:42;;;;;;;6.53;3.83;;;17.70;43.20;;;;;;5072334;28;20222;-60
2023/12/17 04:09:09;;;;;;;7.80;3.65;;;17.70;43.20;;;;;;5071718;28;20672;-60
2023/12/17 04:11:36;;;;;;;8.68;4.03;;;17.70;43.20;;;;;;5072217;28;20226;-59
2023/12/17 04:14:03;;;;;;;6.75;3.60;;;17.70;43.20;;;;;;5071596;28;20198;-60
2023/12/17 04:16:29;;;;;;;5.60;3.38;;;17.70;43.20;;;;;;5071730;28;20714;-60
2023/12/17 04:18:56;;;;;;;9.02;3.88;;;17.70;43.20;;;;;;5071775;28;20187;-60
2023/12/17 04:21:24;;;;;;;5.55;3.65;;;17.70;43.20;;;;;;5071517;28;20723;-59
2023/12/17 04:23:53;;;;;;;7.70;3.78;;;17.70;43.20;;;;;;5071958;28;20314;-60
2023/12/17 04:26:20;;;;;;;7.28;3.70;;;17.70;43.20;;;;;;5071846;28;20264;-60
2023/12/17 04:28:47;;;;;;;8.68;3.65;;;17.70;43.20;;;;;;5071578;28;20188;-59
2023/12/17 04:31:14;;;;;;;7.35;3.65;;;17.70;43.20;;;;;;5071712;28;20653;-59
2023/12/17 04:33:40;;;;;;;7.43;3.92;;;17.70;43.20;;;;;;5071920;28;20256;-59
2023/12/17 04:36:08;;;;;;;6.93;3.67;;;17.70;43.20;;;;;;5071634;28;20760;-59
2023/12/17 04:38:34;;;;;;;7.20;3.88;;;17.70;43.20;;;;;;5071844;28;20187;-59
2023/12/17 04:41:03;;;;;;;7.13;3.75;;;17.70;43.20;;;;;;5071581;28;20683;-59
2023/12/17 04:43:29;;;;;;;7.97;3.97;;;17.70;43.20;;;;;;5071378;28;20222;-60
2023/12/17 04:45:56;;;;;;;6.38;3.80;;;17.60;43.10;;;;;;5071455;28;20704;-59
2023/12/17 04:48:23;;;;;;;9.93;3.67;;;17.60;43.10;;;;;;5071533;28;20249;-60
2023/12/17 04:50:50;;;;;;;6.93;3.60;;;17.60;43.10;;;;;;5071506;28;20316;-59
2023/12/17 04:53:17;;;;;;;8.85;4.25;;;17.60;43.70;;;;;;5071602;28;20558;-60
2023/12/17 04:55:44;;;;;;;7.22;4.05;;;17.60;43.70;;;;;;5074446;28;20225;-60
2023/12/17 04:58:12;;;;;;;7.85;3.88;;;17.60;43.10;;;;;;5074917;28;20213;-60
2023/12/17 05:00:39;;;;;;;5.95;3.67;;;17.60;43.80;;;;;;5075331;28;20233;-59
2023/12/17 05:03:06;;;;;;;8.27;3.60;;;17.60;43.10;;;;;;5075106;28;20253;-59
2023/12/17 05:05:33;;;;;;;8.63;3.80;;;17.60;43.10;;;;;;5074521;28;20704;-59
2023/12/17 05:08:00;;;;;;;9.73;3.90;;;17.60;43.10;;;;;;5075030;28;20190;-60
2023/12/17 05:10:27;;;;;;;7.93;3.83;;;17.60;43.70;;;;;;5074833;28;20555;-60
2023/12/17 05:12:54;;;;;;;6.85;4.00;;;17.60;43.10;;;;;;5074377;28;20233;-60
2023/12/17 05:15:23;;;;;;;7.78;3.70;;;17.60;43.80;;;;;;5075382;28;20305;-60
2023/12/17 05:17:50;;;;;;;7.28;3.85;;;17.60;43.10;;;;;;5075165;28;20198;-60
2023/12/17 05:20:17;;;;;;;5.90;3.70;;;17.60;43.10;;;;;;5074545;28;20214;-60
2023/12/17 05:22:44;;;;;;;5.22;3.50;;;17.60;43.80;;;;;;5074968;28;20273;-60
2023/12/17 05:25:11;;;;;;;9.95;3.97;;;17.50;43.70;;;;;;5074764;28;20321;-59
2023/12/17 05:27:38;;;;;;;8.65;4.05;;;17.50;43.00;;;;;;5074413;28;20602;-60
2023/12/17 05:30:06;;;;;;;7.80;4.15;;;17.50;43.00;;;;;;5074997;28;20230;-59
2023/12/17 05:32:35;;;;;;;5.65;3.78;;;17.50;43.00;;;;;;5074940;28;20636;-60
2023/12/17 05:35:02;;;;;;;8.48;3.85;;;17.50;43.00;;;;;;5074169;28;20252;-59
2023/12/17 05:37:28;;;;;;;8.23;4.38;;;17.50;43.00;;;;;;5074257;28;20194;-60
2023/12/17 05:39:55;;;;;;;9.45;4.47;;;17.50;43.70;;;;;;5074408;28;20194;-60
2023/12/17 05:42:22;;;;;;;7.80;3.83;;;17.50;43.00;;;;;;5073903;28;20442;-59
2023/12/17 05:44:49;;;;;;;7.57;3.70;;;17.50;43.00;;;;;;5074353;28;20225;-59
2023/12/17 05:47:16;;;;;;;7.25;3.72;;;17.50;43.00;;;;;;5074104;28;20216;-59
2023/12/17 05:49:44;;;;;;;7.75;3.90;;;17.50;43.00;;;;;;5074170;28;20215;-59
2023/12/17 05:52:11;;;;;;;7.47;4.07;;;17.50;43.00;;;;;;5073906;28;20278;-60
2023/12/17 05:54:38;;;;;;;6.45;3.72;;;17.50;43.00;;;;;;5074209;28;20193;-59
2023/12/17 05:57:06;;;;;;;8.90;4.13;;;17.50;43.00;;;;;;5073763;28;20253;-59
2023/12/17 05:59:33;;;;;;;6.70;3.63;;;17.50;43.00;;;;;;5073713;28;20197;-60
2023/12/17 06:02:00;;;;;;;7.82;4.05;;;17.50;43.00;;;;;;5074350;28;20301;-59
2023/12/17 06:04:27;;;;;;;8.50;4.68;;;17.50;43.70;;;;;;5074227;28;20210;-60
2023/12/17 06:06:56;;;;;;;5.93;3.97;;;17.50;43.00;;;;;;5073159;28;20660;-59
2023/12/17 06:09:23;;;;;;;6.70;4.13;;;17.50;43.00;;;;;;5074182;28;20195;-59
2023/12/17 06:11:50;;;;;;;6.90;3.72;;;17.50;43.00;;;;;;5073872;28;20246;-59
2023/12/17 06:14:18;;;;;;;8.43;4.20;;;17.50;43.00;;;;;;5074093;28;20198;-60
2023/12/17 06:16:44;;;;;;;8.63;3.90;;;17.40;42.90;;;;;;5073723;28;20223;-60
2023/12/17 06:19:11;;;;;;;10.23;3.67;;;17.40;43.00;;;;;;5073815;28;20273;-59
2023/12/17 06:21:38;;;;;;;6.55;3.63;;;17.40;42.90;;;;;;5073289;28;20707;-60
2023/12/17 06:24:07;;;;;;;7.82;4.03;;;17.40;42.90;;;;;;5073659;28;20214;-60
2023/12/17 06:26:36;;;;;;;5.38;3.25;;;17.40;43.00;;;;;;5073970;28;20226;-60
2023/12/17 06:29:03;;;;;;;6.35;4.05;;;17.40;42.90;;;;;;5073249;28;20187;-60
2023/12/17 06:31:30;;;;;;;6.30;3.92;;;17.40;42.90;;;;;;5073700;28;20302;-60
2023/12/17 06:33:57;;;;;;;5.63;3.28;;;17.40;42.90;;;;;;5073568;28;20187;-59
2023/12/17 06:36:24;;;;;;;7.20;3.63;;;17.40;42.90;;;;;;5073159;28;20222;-60
2023/12/17 06:38:51;;;;;;;8.32;3.70;;;17.40;42.90;;;;;;5073333;28;20293;-60
2023/12/17 06:41:19;;;;;;;7.30;4.15;;;17.40;43.00;;;;;;5073352;28;20301;-59
2023/12/17 06:43:46;;;;;;;7.18;3.65;;;17.40;43.00;;;;;;5072832;28;20229;-60
2023/12/17 06:46:16;;;;;;;6.22;3.90;;;17.40;43.00;;;;;;5073212;28;20219;-60
2023/12/17 06:48:43;;;;;;;8.48;3.95;;;17.40;42.90;;;;;;5073226;28;20193;-60
2023/12/17 06:51:12;;;;;;;6.90;3.80;;;17.40;42.90;;;;;;5072953;28;20306;-60
2023/12/17 06:53:38;;;;;;;9.15;3.90;;;17.40;42.90;;;;;;5072858;28;20194;-57
2023/12/17 06:56:06;;;;;;;9.63;3.85;;;17.40;43.00;;;;;;5072838;28;20564;-60
2023/12/17 06:58:35;;;;;;;6.50;3.60;;;17.40;43.00;;;;;;5072297;28;20687;-60
2023/12/17 07:01:02;;;;;;;7.28;3.60;;;17.40;43.70;;;;;;5072887;28;20597;-60
2023/12/17 07:03:28;;;;;;;7.72;4.25;;;17.40;43.60;;;;;;5072528;28;20190;-60
2023/12/17 07:05:55;;;;;;;6.47;3.63;;;17.30;42.90;;;;;;5072555;28;20215;-60
2023/12/17 07:08:22;;;;;;;8.30;4.07;;;17.30;43.60;;;;;;5073041;28;20610;-60
2023/12/17 07:10:50;;;;;;;7.80;4.03;;;17.40;43.70;;;;;;5073228;28;20219;-59
2023/12/17 07:13:16;;;;;;;7.22;3.42;;;17.30;43.50;;;;;;5072346;28;20197;-60
2023/12/17 07:15:45;;;;;;;9.65;3.70;;;17.30;42.90;;;;;;5072535;28;20692;-59
2023/12/17 07:18:12;;;;;;;8.07;3.92;;;17.30;42.90;;;;;;5072524;28;20191;-60
2023/12/17 07:20:39;;;;;;;7.85;4.10;;;17.30;43.60;;;;;;5072086;28;20638;-59
2023/12/17 07:23:06;;;;;;;7.68;3.88;;;17.30;42.90;;;;;;5072671;28;20681;-60
2023/12/17 07:25:33;;;;;;;7.88;4.15;;;17.30;42.90;;;;;;5072535;28;20323;-60
2023/12/17 07:28:00;;;;;;;10.02;4.53;;;17.30;42.90;;;;;;5072122;28;20187;-60
2023/12/17 07:30:27;;;;;;;8.23;3.45;;;17.30;42.90;;;;;;5072563;28;20214;-59
2023/12/17 07:32:55;;;;;;;7.57;3.60;;;17.30;42.90;;;;;;5072291;28;20193;-60
2023/12/17 07:35:22;;;;;;;6.70;3.88;;;17.30;42.90;;;;;;5071867;28;20215;-59
2023/12/17 07:37:48;;;;;;;5.32;3.53;;;17.30;42.90;;;;;;5072407;28;20193;-60
2023/12/17 07:40:15;;;;;;;8.18;3.78;;;17.30;42.90;;;;;;5072391;28;20221;-60
2023/12/17 07:42:42;;;;;;;7.28;3.55;;;17.30;43.60;;;;;;5072120;28;20182;-60
2023/12/17 07:45:10;;;;;;;6.95;4.13;;;17.30;42.90;;;;;;5072489;28;20218;-59
2023/12/17 07:47:37;;;;;;;6.20;3.80;;;17.30;42.90;;;;;;5072252;28;20187;-60
2023/12/17 07:50:08;;;;;;;8.02;3.85;;;17.30;43.00;;;;;;5071713;28;20645;-60
2023/12/17 07:52:34;;;;;;;7.78;3.90;;;17.30;43.00;;;;;;5072023;28;20623;-59
2023/12/17 07:55:02;;;;;;;5.50;3.60;;;17.30;43.00;;;;;;5072124;28;20187;-58
2023/12/17 07:57:29;;;;;;;5.93;3.65;;;17.30;43.00;;;;;;5071873;28;20249;-61
2023/12/17 07:59:56;;;;;;;6.35;3.83;;;17.30;43.00;;;;;;5072141;28;20191;-60
2023/12/17 08:02:23;;;;;;;6.20;3.67;;;17.30;43.60;;;;;;5072214;28;20191;-59
2023/12/17 08:04:51;;;;;;;5.85;3.63;;;17.30;43.00;;;;;;5071726;28;20221;-60
2023/12/17 08:07:20;;;;;;;7.85;4.18;;;17.30;43.00;;;;;;5072021;28;20712;-59
2023/12/17 08:09:47;;;;;;;6.80;3.75;;;17.20;42.90;;;;;;5072091;28;20198;-60
2023/12/17 08:12:13;;;;;;;8.70;4.07;;;17.30;43.00;;;;;;5071578;28;20708;-59
2023/12/17 08:14:41;;;;;;;6.80;3.92;;;17.20;43.60;;;;;;5072587;28;20221;-60
2023/12/17 08:17:08;;;;;;;8.48;3.88;;;17.20;42.90;;;;;;5071626;28;20773;-58
2023/12/17 08:19:35;;;;;;;7.10;3.90;;;17.20;43.00;;;;;;5071684;28;20191;-59
2023/12/17 08:22:02;;;;;;;6.93;3.58;;;17.20;42.90;;;;;;5072239;28;20218;-60
2023/12/17 08:24:30;;;;;;;10.07;3.88;;;17.20;43.60;;;;;;5071928;28;20214;-59
2023/12/17 08:26:59;;;;;;;6.45;3.90;;;17.20;43.70;;;;;;5071755;28;20217;-59
2023/12/17 08:29:26;;;;;;;8.65;3.63;;;17.20;43.00;;;;;;5072790;28;20242;-60
2023/12/17 08:31:53;;;;;;;9.35;4.10;;;17.20;43.70;;;;;;5076181;28;20301;-60
2023/12/17 08:34:20;;;;;;;7.18;3.60;;;17.20;43.00;;;;;;5075502;28;20202;-59
2023/12/17 08:36:47;;;;;;;7.78;3.70;;;17.20;43.70;;;;;;5075798;28;20225;-59
2023/12/17 08:39:14;;;;;;;7.28;4.05;;;17.20;43.10;;;;;;5075468;28;20675;-60
2023/12/17 08:41:42;;;;;;;7.78;4.07;;;17.20;43.70;;;;;;5075464;28;20268;-60
2023/12/17 08:44:09;;;;;;;7.80;3.70;;;17.20;43.00;;;;;;5075555;28;20197;-59
2023/12/17 08:46:36;;;;;;;8.63;3.50;;;17.10;43.00;;;;;;5075412;28;20305;-59
2023/12/17 08:49:03;;;;;;;6.75;3.60;;;17.20;43.50;;;;;;5075169;28;20215;-60
2023/12/17 08:51:30;;;;;;;6.93;3.65;;;17.20;43.10;;;;;;5075608;28;20310;-59
2023/12/17 08:53:57;;;;;;;8.68;3.67;;;17.20;43.10;;;;;;5075415;28;20198;-58
2023/12/17 08:56:24;;;;;;;5.95;3.75;;;17.20;43.10;;;;;;5075199;28;20268;-59
2023/12/17 08:58:52;;;;;;;6.25;3.58;;;17.10;43.10;;;;;;5075001;28;20233;-59
2023/12/17 09:01:19;;;;;;;7.32;3.67;;;17.20;43.10;;;;;;5075424;28;20217;-60
2023/12/17 09:03:46;;;;;;;6.53;3.35;;;17.20;43.10;;;;;;5074702;28;20453;-60
2023/12/17 09:06:13;;;;;;;6.72;3.67;;;17.10;43.70;;;;;;5075187;28;20230;-59
2023/12/17 09:08:39;;;;;;;5.43;3.38;;;17.10;43.70;;;;;;5074839;28;20562;-59
2023/12/17 09:11:07;;;;;;;9.13;3.78;;;17.10;43.10;;;;;;5074517;28;20234;-59
2023/12/17 09:13:33;;;;;;;7.88;3.58;;;17.10;43.10;;;;;;5075043;28;20197;-60
2023/12/17 09:16:02;;;;;;;7.13;3.80;;;17.10;43.10;;;;;;5074806;28;20308;-60
2023/12/17 09:18:29;;;;;;;6.78;3.70;;;17.10;43.10;;;;;;5074637;28;20186;-59
2023/12/17 09:20:56;;;;;;;8.73;3.45;;;17.10;43.10;;;;;;5074787;28;20708;-60
2023/12/17 09:23:22;;;;;;;7.82;3.80;;;17.10;43.20;;;;;;5074867;28;20191;-60
2023/12/17 09:25:49;;;;;;;6.47;3.65;;;17.10;43.90;;;;;;5074403;28;20310;-60
2023/12/17 09:28:16;;;;;;;5.97;3.38;;;17.10;43.20;;;;;;5074770;28;20187;-59
2023/12/17 09:30:43;;;;;;;6.10;3.60;;;17.10;43.20;;;;;;5074827;28;20233;-60
2023/12/17 09:33:13;;;;;;;6.80;3.80;;;17.10;43.90;;;;;;5074400;28;20198;-59
2023/12/17 09:35:40;;;;;;;7.47;3.63;;;17.10;43.20;;;;;;5074312;28;20700;-61
2023/12/17 09:38:07;;;;;;;7.68;3.85;;;17.10;43.20;;;;;;5074417;28;20286;-59
2023/12/17 09:40:33;;;;;;;7.18;3.55;;;17.10;43.30;;;;;;5073858;28;20253;-60
2023/12/17 09:43:01;;;;;;;5.57;3.10;;;17.10;43.20;;;;;;5074215;28;20652;-59
2023/12/17 09:45:28;;;;;;;6.07;3.70;;;17.10;43.30;;;;;;5074327;28;20237;-60
2023/12/17 09:47:55;;;;;;;7.43;3.80;;;17.10;43.30;;;;;;5074068;28;20187;-59
2023/12/17 09:50:27;;;;;;;6.25;3.58;;;17.10;44.00;;;;;;5074387;28;20330;-60
2023/12/17 09:52:54;;;;;;;6.43;3.70;;;17.10;43.40;;;;;;5074421;28;20275;-60
2023/12/17 09:55:21;;;;;;;7.03;3.88;;;17.10;43.30;;;;;;5073736;28;20660;-60
2023/12/17 09:57:48;;;;;;;8.35;3.65;;;17.10;43.40;;;;;;5074112;28;20217;-59
2023/12/17 10:00:15;;;;;;;7.43;3.58;;;17.10;44.00;;;;;;5074174;28;20641;-60
2023/12/17 10:02:42;;;;;;;7.03;3.85;;;17.10;43.40;;;;;;5073903;28;20187;-60
2023/12/17 10:05:09;;;;;;;6.20;3.20;;;17.10;44.00;;;;;;5073918;28;20210;-59
2023/12/17 10:07:38;;;;;;;8.48;3.92;;;17.10;43.40;;;;;;5074023;28;20290;-59
2023/12/17 10:10:06;;;;;;;5.55;3.20;;;17.00;43.40;;;;;;5073774;28;20223;-60
2023/12/17 10:12:33;;;;;;;6.05;3.72;;;17.10;43.50;;;;;;5073535;28;20231;-59
2023/12/17 10:15:00;;;;;;;7.90;3.47;;;17.00;43.40;;;;;;5073905;28;20360;-59
2023/12/17 10:17:26;;;;;;;5.05;3.20;;;17.00;43.40;;;;;;5073048;28;20222;-60
2023/12/17 10:19:53;;;;;;;5.95;3.63;;;17.00;43.40;;;;;;5073836;28;20281;-59
2023/12/17 10:22:20;;;;;;;7.25;3.85;;;17.00;43.40;;;;;;5073782;28;20302;-60
2023/12/17 10:24:50;;;;;;;7.65;3.97;;;17.00;43.40;;;;;;5073261;28;20241;-59
2023/12/17 10:27:18;;;;;;;6.00;3.60;;;17.00;43.50;;;;;;5073776;28;20589;-60
2023/12/17 10:29:49;;;;;;;6.97;3.80;;;17.00;43.60;;;;;;5073609;28;20183;-60
2023/12/17 10:32:20;;;;;;;6.95;3.65;;;17.00;43.60;;;;;;5073655;28;20234;-60
2023/12/17 10:34:48;;;;;;;5.70;3.33;;;17.00;43.60;;;;;;5073211;28;20183;-59
2023/12/17 10:37:16;;;;;;;7.32;3.75;;;17.00;43.60;;;;;;5073676;28;20225;-61
2023/12/17 10:39:44;;;;;;;7.00;3.35;;;17.00;43.60;;;;;;5073167;28;20197;-60
2023/12/17 10:42:13;;;;;;;5.88;3.60;;;17.00;43.60;;;;;;5073495;28;20312;-60
2023/12/17 10:44:42;;;;;;;7.80;3.47;;;17.00;43.70;;;;;;5073410;28;20269;-60
2023/12/17 10:47:12;;;;;;;7.93;3.75;;;17.00;44.30;;;;;;5072740;28;20220;-60
2023/12/17 10:49:40;;;;;;;6.00;3.72;;;17.00;43.70;;;;;;5073292;28;20233;-59
2023/12/17 10:52:08;;;;;;;7.30;3.78;;;17.00;43.70;;;;;;5072305;28;20229;-58
2023/12/17 10:54:35;;;;;;;8.30;4.10;;;17.00;43.80;;;;;;5072595;28;20664;-59
2023/12/17 10:57:03;;;;;;;6.88;3.20;;;17.00;43.70;;;;;;5073185;28;20223;-60
2023/12/17 10:59:34;;;;;;;6.65;3.72;;;17.00;43.70;;;;;;5073129;28;20631;-59
2023/12/17 11:02:02;;;;;;;7.68;3.83;;;17.00;43.70;;;;;;5072891;28;20306;-60
2023/12/17 11:04:29;;;;;;;7.30;4.13;;;17.00;43.70;;;;;;5072887;28;20191;-59
2023/12/17 11:06:56;;;;;;;7.93;4.05;;;17.00;43.70;;;;;;5072713;28;20234;-60
2023/12/17 11:09:24;;;;;;;7.15;3.70;;;17.00;44.10;;;;;;5072214;28;20719;-59
2023/12/17 11:11:52;;;;;;;6.28;3.60;;;17.00;43.70;;;;;;5072475;28;20777;-59
2023/12/17 11:14:19;;;;;;;7.20;3.72;;;17.00;43.70;;;;;;5072736;28;20197;-59
2023/12/17 11:16:47;;;;;;;6.60;3.88;;;17.00;43.70;;;;;;5072144;28;20654;-59
2023/12/17 11:19:14;;;;;;;7.85;3.78;;;17.00;43.70;;;;;;5072938;28;20199;-59
2023/12/17 11:21:41;;;;;;;9.88;3.90;;;17.00;44.40;;;;;;5072449;28;20306;-59
2023/12/17 11:24:08;;;;;;;7.40;3.65;;;17.00;43.70;;;;;;5072083;28;20197;-60
2023/12/17 11:26:44;;;;;;;8.45;3.80;;;17.00;43.70;;;;;;5072243;28;20776;-59
2023/12/17 11:29:32;;;;;;;7.05;3.90;;;17.00;43.70;;;;;;5072589;28;20191;-60
2023/12/17 11:32:01;;;;;;;7.35;3.83;;;17.00;43.70;;;;;;5072334;28;20220;-60
2023/12/17 11:34:30;;;;;;;7.88;4.05;;;17.00;44.40;;;;;;5072803;28;20187;-60
2023/12/17 11:36:57;;;;;;;6.35;3.38;;;17.00;43.70;;;;;;5072193;28;20705;-58
2023/12/17 11:39:26;;;;;;;7.32;3.92;;;17.00;43.70;;;;;;5072131;28;20270;-60
2023/12/17 11:41:52;;;;;;;8.60;4.10;;;17.00;43.70;;;;;;5072522;28;20219;-60
2023/12/17 11:44:19;;;;;;;6.60;4.13;;;17.00;44.40;;;;;;5072457;28;20272;-60
2023/12/17 11:46:47;;;;;;;7.03;3.53;;;17.00;44.40;;;;;;5072027;28;20249;-60
2023/12/17 11:49:23;;;;;;;7.28;3.60;;;17.00;43.70;;;;;;5072332;28;20191;-60
2023/12/17 11:51:50;;;;;;;6.82;3.22;;;17.00;43.70;;;;;;5071974;28;20210;-59
2023/12/17 11:54:20;;;;;;;6.75;3.75;;;17.00;43.70;;;;;;5071976;28;20186;-60
2023/12/17 11:56:49;;;;;;;7.75;3.28;;;17.00;43.70;;;;;;5072248;28;20330;-59
2023/12/17 11:59:15;;;;;;;5.43;3.28;;;17.00;44.40;;;;;;5071910;28;20183;-60
2023/12/17 12:01:43;;;;;;;8.95;3.95;;;17.00;43.80;;;;;;5072018;28;20221;-59
2023/12/17 12:04:11;;;;;;;6.03;3.20;;;17.00;43.80;;;;;;5072217;28;20637;-60
2023/12/17 12:06:39;;;;;;;6.00;3.28;;;17.00;43.80;;;;;;5076329;28;20230;-59
2023/12/17 12:09:19;;;;;;;7.18;3.80;;;17.00;44.40;;;;;;5075919;28;20195;-59
2023/12/17 12:11:45;;;;;;;9.35;3.20;;;17.00;44.60;;;;;;5075959;28;20265;-59
2023/12/17 12:14:13;;;;;;;6.75;3.50;;;17.00;43.90;;;;;;5076126;28;20739;-60
2023/12/17 12:16:40;;;;;;;5.55;3.05;;;17.00;44.00;;;;;;5075755;28;20210;-59
2023/12/17 12:19:07;;;;;;;9.02;3.95;;;16.90;43.90;;;;;;5076145;28;20550;-58
2023/12/17 12:21:34;;;;;;;6.55;3.83;;;17.00;43.90;;;;;;5076006;28;20726;-60
2023/12/17 12:24:04;;;;;;;6.20;3.10;;;17.00;44.60;;;;;;5075602;28;20281;-59
2023/12/17 12:26:34;;;;;;;7.65;3.72;;;17.00;43.90;;;;;;5075935;28;20234;-59
2023/12/17 12:29:02;;;;;;;7.15;4.15;;;17.00;44.00;;;;;;5075820;28;20213;-60
2023/12/17 12:31:29;;;;;;;6.10;3.35;;;17.00;44.10;;;;;;5075680;28;20322;-60
2023/12/17 12:33:59;;;;;;;7.53;3.60;;;17.00;44.00;;;;;;5075732;28;20197;-60
2023/12/17 12:36:26;;;;;;;7.43;3.53;;;17.00;44.10;;;;;;5075839;28;20265;-59
2023/12/17 12:39:05;;;;;;;6.88;3.30;;;16.90;44.10;;;;;;5075392;28;20273;-60
2023/12/17 12:41:32;;;;;;;6.25;3.33;;;17.00;44.10;;;;;;5075675;28;20219;-59
2023/12/17 12:44:00;;;;;;;6.95;3.75;;;17.00;44.10;;;;;;5075281;28;20191;-59
2023/12/17 12:46:27;;;;;;;9.27;3.40;;;16.90;44.10;;;;;;5074863;28;20237;-59